Líbí se Vám tento web? Budeme velmi rádi, pokud přidáte hodnocení +1

Seznam meteostanic a jejich METAR

Vyhledat místa podle abecedy:
A B C D E F G H I J K L M N O P Q R S T U V W X Y Z

Filtrovat:

ID stanice:
a/nebo
Název místa (fulltext):
 
Místo (ID)Naposledy načteno 
Jakarta (WIII) 17.01.2018 21:00 UTC Zobrazit METAR
WIII 172100Z 28005KT 7000 BKN020 25/23 Q1006 NOSIG
Jerusalem (LLJR) Zatím nenačteno  
Joensuu (EFJO) 17.01.2018 20:50 UTC Zobrazit METAR
EFJO 172050Z AUTO 09011KT 9999 -SHSN BKN016 OVC061 M07/M09 Q1004
Johannesburg (FAJS) 09.01.2013 23:00 UTC Zobrazit METAR
FAJS 092300Z 01010KT 340V040 CAVOK 22/11 Q1020 NOSIG
Johnston I (PJON) Zatím nenačteno  
Reklama

Počasí na Váš email

Emaily jsou bez reklamy a bez spamu



Odhlásit newsletter

Reklama


Lunární kalendář

  • 24.01.
  • 31.01.
  • 07.02.
  • 15.02.



Jsme na Google Plus

Reklama
Povinné ručení



Může Vás také zajímat:


Reklama